sensor_id;sensor_type;location;lat;lon;timestamp;P1;durP1;ratioP1;P2;durP2;ratioP2
23206;SDS011;11773;52.570;13.052;2023-02-01T00:01:48;5.22;;;2.20;;
23206;SDS011;11773;52.570;13.052;2023-02-01T00:04:18;5.40;;;1.90;;
23206;SDS011;11773;52.570;13.052;2023-02-01T00:06:48;3.70;;;2.00;;
23206;SDS011;11773;52.570;13.052;2023-02-01T00:09:17;3.23;;;1.57;;
23206;SDS011;11773;52.570;13.052;2023-02-01T00:11:47;4.53;;;1.67;;
23206;SDS011;11773;52.570;13.052;2023-02-01T00:14:16;4.20;;;1.70;;
23206;SDS011;11773;52.570;13.052;2023-02-01T00:16:46;3.80;;;1.70;;
23206;SDS011;11773;52.570;13.052;2023-02-01T00:19:15;7.93;;;2.53;;
23206;SDS011;11773;52.570;13.052;2023-02-01T00:21:45;4.67;;;1.77;;
23206;SDS011;11773;52.570;13.052;2023-02-01T00:24:14;3.57;;;1.77;;
23206;SDS011;11773;52.570;13.052;2023-02-01T00:26:44;3.27;;;1.40;;
23206;SDS011;11773;52.570;13.052;2023-02-01T00:29:16;3.50;;;1.50;;
23206;SDS011;11773;52.570;13.052;2023-02-01T00:31:49;1.93;;;1.10;;
23206;SDS011;11773;52.570;13.052;2023-02-01T00:34:19;4.43;;;1.73;;
23206;SDS011;11773;52.570;13.052;2023-02-01T00:36:49;3.33;;;1.50;;
23206;SDS011;11773;52.570;13.052;2023-02-01T00:39:18;2.37;;;1.03;;
23206;SDS011;11773;52.570;13.052;2023-02-01T00:41:48;3.57;;;1.53;;
23206;SDS011;11773;52.570;13.052;2023-02-01T00:44:17;2.00;;;0.97;;
23206;SDS011;11773;52.570;13.052;2023-02-01T00:46:47;0.90;;;0.70;;
23206;SDS011;11773;52.570;13.052;2023-02-01T00:49:16;2.43;;;1.07;;
23206;SDS011;11773;52.570;13.052;2023-02-01T00:51:46;2.00;;;1.00;;
23206;SDS011;11773;52.570;13.052;2023-02-01T00:54:15;3.73;;;1.17;;
23206;SDS011;11773;52.570;13.052;2023-02-01T00:56:45;1.70;;;1.20;;
23206;SDS011;11773;52.570;13.052;2023-02-01T00:59:14;2.67;;;1.00;;
23206;SDS011;11773;52.570;13.052;2023-02-01T01:01:44;3.20;;;1.13;;
23206;SDS011;11773;52.570;13.052;2023-02-01T01:04:13;1.13;;;0.80;;
23206;SDS011;11773;52.570;13.052;2023-02-01T01:06:43;1.43;;;0.77;;
23206;SDS011;11773;52.570;13.052;2023-02-01T01:09:13;1.10;;;0.97;;
23206;SDS011;11773;52.570;13.052;2023-02-01T01:11:42;3.57;;;1.03;;
23206;SDS011;11773;52.570;13.052;2023-02-01T01:14:12;1.93;;;1.03;;
23206;SDS011;11773;52.570;13.052;2023-02-01T01:16:42;3.10;;;1.63;;
23206;SDS011;11773;52.570;13.052;2023-02-01T01:19:11;2.73;;;1.00;;
23206;SDS011;11773;52.570;13.052;2023-02-01T01:21:40;1.87;;;0.85;;
23206;SDS011;11773;52.570;13.052;2023-02-01T01:24:10;1.47;;;0.93;;
23206;SDS011;11773;52.570;13.052;2023-02-01T01:26:39;3.00;;;1.47;;
23206;SDS011;11773;52.570;13.052;2023-02-01T01:29:09;1.93;;;0.97;;
23206;SDS011;11773;52.570;13.052;2023-02-01T01:31:38;2.53;;;1.20;;
23206;SDS011;11773;52.570;13.052;2023-02-01T01:34:08;1.30;;;0.83;;
23206;SDS011;11773;52.570;13.052;2023-02-01T01:36:37;2.47;;;1.20;;
23206;SDS011;11773;52.570;13.052;2023-02-01T01:39:07;2.67;;;1.20;;
23206;SDS011;11773;52.570;13.052;2023-02-01T01:41:36;5.23;;;1.30;;
23206;SDS011;11773;52.570;13.052;2023-02-01T01:44:53;3.07;;;1.20;;
23206;SDS011;11773;52.570;13.052;2023-02-01T01:47:05;2.20;;;1.07;;
23206;SDS011;11773;52.570;13.052;2023-02-01T01:49:35;2.63;;;1.07;;
23206;SDS011;11773;52.570;13.052;2023-02-01T01:52:05;2.37;;;0.93;;
23206;SDS011;11773;52.570;13.052;2023-02-01T01:54:40;5.33;;;1.77;;
23206;SDS011;11773;52.570;13.052;2023-02-01T01:57:23;4.57;;;1.63;;
23206;SDS011;11773;52.570;13.052;2023-02-01T02:00:08;1.77;;;0.80;;
23206;SDS011;11773;52.570;13.052;2023-02-01T02:02:41;3.57;;;1.30;;
23206;SDS011;11773;52.570;13.052;2023-02-01T02:05:15;1.57;;;0.83;;
23206;SDS011;11773;52.570;13.052;2023-02-01T02:08:06;2.30;;;1.10;;
23206;SDS011;11773;52.570;13.052;2023-02-01T02:10:36;3.13;;;1.13;;
23206;SDS011;11773;52.570;13.052;2023-02-01T02:13:23;1.90;;;1.00;;
23206;SDS011;11773;52.570;13.052;2023-02-01T02:16:13;2.87;;;1.57;;
23206;SDS011;11773;52.570;13.052;2023-02-01T02:18:59;3.30;;;1.47;;
23206;SDS011;11773;52.570;13.052;2023-02-01T02:31:22;4.03;;;1.60;;
23206;SDS011;11773;52.570;13.052;2023-02-01T02:34:10;3.10;;;1.03;;
23206;SDS011;11773;52.570;13.052;2023-02-01T02:39:35;1.67;;;1.10;;
23206;SDS011;11773;52.570;13.052;2023-02-01T02:42:28;3.50;;;1.27;;
23206;SDS011;11773;52.570;13.052;2023-02-01T02:45:37;3.87;;;1.63;;
23206;SDS011;11773;52.570;13.052;2023-02-01T02:48:32;1.80;;;1.00;;
23206;SDS011;11773;52.570;13.052;2023-02-01T02:51:37;2.93;;;1.00;;
23206;SDS011;11773;52.570;13.052;2023-02-01T02:54:32;2.67;;;1.07;;
23206;SDS011;11773;52.570;13.052;2023-02-01T02:57:18;7.17;;;1.60;;
23206;SDS011;11773;52.570;13.052;2023-02-01T03:00:08;4.27;;;1.53;;
23206;SDS011;11773;52.570;13.052;2023-02-01T03:02:59;5.03;;;1.90;;
23206;SDS011;11773;52.570;13.052;2023-02-01T03:05:48;1.53;;;0.70;;
23206;SDS011;11773;52.570;13.052;2023-02-01T03:08:25;2.60;;;1.20;;
23206;SDS011;11773;52.570;13.052;2023-02-01T03:11:00;2.83;;;1.00;;
23206;SDS011;11773;52.570;13.052;2023-02-01T03:13:39;3.30;;;1.00;;
23206;SDS011;11773;52.570;13.052;2023-02-01T03:16:24;1.77;;;1.00;;
23206;SDS011;11773;52.570;13.052;2023-02-01T03:19:00;2.77;;;1.30;;
23206;SDS011;11773;52.570;13.052;2023-02-01T03:22:03;4.07;;;1.63;;
23206;SDS011;11773;52.570;13.052;2023-02-01T03:24:40;3.40;;;1.20;;
23206;SDS011;11773;52.570;13.052;2023-02-01T03:27:27;2.30;;;1.03;;
23206;SDS011;11773;52.570;13.052;2023-02-01T03:30:12;2.83;;;1.07;;
23206;SDS011;11773;52.570;13.052;2023-02-01T03:32:47;2.90;;;0.70;;
23206;SDS011;11773;52.570;13.052;2023-02-01T03:35:30;1.70;;;1.03;;
23206;SDS011;11773;52.570;13.052;2023-02-01T03:38:19;2.30;;;0.90;;
23206;SDS011;11773;52.570;13.052;2023-02-01T03:41:18;2.47;;;1.07;;
23206;SDS011;11773;52.570;13.052;2023-02-01T03:44:22;3.20;;;1.33;;
23206;SDS011;11773;52.570;13.052;2023-02-01T03:46:56;1.63;;;0.93;;
23206;SDS011;11773;52.570;13.052;2023-02-01T03:49:46;2.73;;;1.10;;
23206;SDS011;11773;52.570;13.052;2023-02-01T03:52:24;2.70;;;0.90;;
23206;SDS011;11773;52.570;13.052;2023-02-01T03:54:59;2.57;;;0.90;;
23206;SDS011;11773;52.570;13.052;2023-02-01T03:57:31;1.93;;;1.00;;
23206;SDS011;11773;52.570;13.052;2023-02-01T04:00:08;3.87;;;1.40;;
23206;SDS011;11773;52.570;13.052;2023-02-01T04:02:50;2.00;;;1.20;;
23206;SDS011;11773;52.570;13.052;2023-02-01T04:05:21;2.50;;;1.40;;
23206;SDS011;11773;52.570;13.052;2023-02-01T04:07:51;2.40;;;1.33;;
23206;SDS011;11773;52.570;13.052;2023-02-01T04:10:21;3.30;;;1.10;;
23206;SDS011;11773;52.570;13.052;2023-02-01T04:12:51;2.43;;;1.10;;
23206;SDS011;11773;52.570;13.052;2023-02-01T04:15:20;2.30;;;1.20;;
23206;SDS011;11773;52.570;13.052;2023-02-01T04:17:50;4.03;;;1.30;;
23206;SDS011;11773;52.570;13.052;2023-02-01T04:20:19;4.27;;;1.60;;
23206;SDS011;11773;52.570;13.052;2023-02-01T04:22:49;4.63;;;1.47;;
23206;SDS011;11773;52.570;13.052;2023-02-01T04:25:19;1.70;;;0.73;;
23206;SDS011;11773;52.570;13.052;2023-02-01T04:27:48;2.83;;;1.00;;
23206;SDS011;11773;52.570;13.052;2023-02-01T04:30:18;2.07;;;1.13;;
23206;SDS011;11773;52.570;13.052;2023-02-01T04:32:48;2.33;;;0.97;;
23206;SDS011;11773;52.570;13.052;2023-02-01T04:35:17;3.37;;;1.03;;
23206;SDS011;11773;52.570;13.052;2023-02-01T04:37:47;3.27;;;1.33;;
23206;SDS011;11773;52.570;13.052;2023-02-01T04:40:16;3.67;;;1.70;;
23206;SDS011;11773;52.570;13.052;2023-02-01T04:42:46;4.67;;;1.60;;
23206;SDS011;11773;52.570;13.052;2023-02-01T04:45:15;3.97;;;1.23;;
23206;SDS011;11773;52.570;13.052;2023-02-01T04:47:45;4.53;;;1.10;;
23206;SDS011;11773;52.570;13.052;2023-02-01T04:50:15;4.53;;;1.67;;
23206;SDS011;11773;52.570;13.052;2023-02-01T04:52:45;2.17;;;0.83;;
23206;SDS011;11773;52.570;13.052;2023-02-01T04:55:14;2.23;;;1.00;;
23206;SDS011;11773;52.570;13.052;2023-02-01T04:57:44;2.37;;;0.87;;
23206;SDS011;11773;52.570;13.052;2023-02-01T05:00:13;1.43;;;0.93;;
23206;SDS011;11773;52.570;13.052;2023-02-01T05:02:43;3.50;;;1.40;;
23206;SDS011;11773;52.570;13.052;2023-02-01T05:05:13;2.77;;;1.00;;
23206;SDS011;11773;52.570;13.052;2023-02-01T05:07:42;2.97;;;1.50;;
23206;SDS011;11773;52.570;13.052;2023-02-01T05:10:13;4.30;;;1.73;;
23206;SDS011;11773;52.570;13.052;2023-02-01T05:12:43;4.43;;;1.50;;
23206;SDS011;11773;52.570;13.052;2023-02-01T05:15:31;2.47;;;0.93;;
23206;SDS011;11773;52.570;13.052;2023-02-01T05:18:00;2.93;;;1.30;;
23206;SDS011;11773;52.570;13.052;2023-02-01T05:20:30;3.80;;;1.60;;
23206;SDS011;11773;52.570;13.052;2023-02-01T05:22:59;1.80;;;1.03;;
23206;SDS011;11773;52.570;13.052;2023-02-01T05:25:29;1.30;;;0.70;;
23206;SDS011;11773;52.570;13.052;2023-02-01T05:27:58;1.50;;;0.83;;
23206;SDS011;11773;52.570;13.052;2023-02-01T05:30:27;3.53;;;1.47;;
23206;SDS011;11773;52.570;13.052;2023-02-01T05:32:59;2.23;;;1.30;;
23206;SDS011;11773;52.570;13.052;2023-02-01T05:35:29;3.37;;;1.37;;
23206;SDS011;11773;52.570;13.052;2023-02-01T05:37:58;3.43;;;1.30;;
23206;SDS011;11773;52.570;13.052;2023-02-01T05:40:28;3.33;;;1.30;;
23206;SDS011;11773;52.570;13.052;2023-02-01T05:42:57;4.00;;;1.50;;
23206;SDS011;11773;52.570;13.052;2023-02-01T05:45:27;3.57;;;2.03;;
23206;SDS011;11773;52.570;13.052;2023-02-01T05:47:56;3.97;;;1.47;;
23206;SDS011;11773;52.570;13.052;2023-02-01T05:50:26;3.00;;;1.03;;
23206;SDS011;11773;52.570;13.052;2023-02-01T05:52:55;3.07;;;1.40;;
23206;SDS011;11773;52.570;13.052;2023-02-01T05:55:25;3.20;;;0.97;;
23206;SDS011;11773;52.570;13.052;2023-02-01T05:57:54;4.50;;;1.60;;
23206;SDS011;11773;52.570;13.052;2023-02-01T06:00:24;2.70;;;1.20;;
23206;SDS011;11773;52.570;13.052;2023-02-01T06:02:54;5.67;;;1.80;;
23206;SDS011;11773;52.570;13.052;2023-02-01T06:05:23;3.37;;;1.43;;
23206;SDS011;11773;52.570;13.052;2023-02-01T06:07:53;1.80;;;0.90;;
23206;SDS011;11773;52.570;13.052;2023-02-01T06:10:23;1.73;;;0.97;;
23206;SDS011;11773;52.570;13.052;2023-02-01T06:12:52;2.13;;;1.37;;
23206;SDS011;11773;52.570;13.052;2023-02-01T06:15:22;3.40;;;1.27;;
23206;SDS011;11773;52.570;13.052;2023-02-01T06:17:51;4.50;;;1.87;;
23206;SDS011;11773;52.570;13.052;2023-02-01T06:20:21;2.17;;;1.10;;
23206;SDS011;11773;52.570;13.052;2023-02-01T06:22:51;3.57;;;1.50;;
23206;SDS011;11773;52.570;13.052;2023-02-01T06:25:21;2.43;;;1.33;;
23206;SDS011;11773;52.570;13.052;2023-02-01T06:27:50;2.57;;;1.43;;
23206;SDS011;11773;52.570;13.052;2023-02-01T06:30:19;3.53;;;1.10;;
23206;SDS011;11773;52.570;13.052;2023-02-01T06:32:50;3.50;;;1.30;;
23206;SDS011;11773;52.570;13.052;2023-02-01T06:35:22;2.70;;;1.30;;
23206;SDS011;11773;52.570;13.052;2023-02-01T06:37:53;3.57;;;1.40;;
23206;SDS011;11773;52.570;13.052;2023-02-01T06:40:24;2.40;;;1.10;;
23206;SDS011;11773;52.570;13.052;2023-02-01T06:42:53;2.40;;;1.33;;
23206;SDS011;11773;52.570;13.052;2023-02-01T06:45:24;2.10;;;1.17;;
23206;SDS011;11773;52.570;13.052;2023-02-01T06:47:53;1.93;;;1.10;;
23206;SDS011;11773;52.570;13.052;2023-02-01T06:50:23;2.13;;;0.80;;
23206;SDS011;11773;52.570;13.052;2023-02-01T06:52:52;3.37;;;1.43;;
23206;SDS011;11773;52.570;13.052;2023-02-01T06:55:22;4.50;;;1.60;;
23206;SDS011;11773;52.570;13.052;2023-02-01T06:57:55;4.50;;;1.60;;
23206;SDS011;11773;52.570;13.052;2023-02-01T07:00:24;3.67;;;1.80;;
23206;SDS011;11773;52.570;13.052;2023-02-01T07:02:54;5.10;;;1.93;;
23206;SDS011;11773;52.570;13.052;2023-02-01T07:05:27;4.77;;;2.00;;
23206;SDS011;11773;52.570;13.052;2023-02-01T07:07:56;2.13;;;1.10;;
23206;SDS011;11773;52.570;13.052;2023-02-01T07:10:26;3.07;;;0.90;;
23206;SDS011;11773;52.570;13.052;2023-02-01T07:12:58;2.70;;;1.10;;
23206;SDS011;11773;52.570;13.052;2023-02-01T07:15:28;4.77;;;1.80;;
23206;SDS011;11773;52.570;13.052;2023-02-01T07:17:57;2.00;;;1.33;;
23206;SDS011;11773;52.570;13.052;2023-02-01T07:20:26;3.47;;;1.30;;
23206;SDS011;11773;52.570;13.052;2023-02-01T07:22:56;2.00;;;1.07;;
23206;SDS011;11773;52.570;13.052;2023-02-01T07:25:26;2.67;;;1.30;;
23206;SDS011;11773;52.570;13.052;2023-02-01T07:27:55;2.33;;;1.17;;
23206;SDS011;11773;52.570;13.052;2023-02-01T07:30:25;2.10;;;1.20;;
23206;SDS011;11773;52.570;13.052;2023-02-01T07:32:55;3.57;;;1.80;;
23206;SDS011;11773;52.570;13.052;2023-02-01T07:35:27;3.33;;;1.40;;
23206;SDS011;11773;52.570;13.052;2023-02-01T07:37:57;3.07;;;1.40;;
23206;SDS011;11773;52.570;13.052;2023-02-01T07:40:26;2.33;;;1.07;;
23206;SDS011;11773;52.570;13.052;2023-02-01T07:42:57;3.13;;;1.77;;
23206;SDS011;11773;52.570;13.052;2023-02-01T07:45:26;1.77;;;0.90;;
23206;SDS011;11773;52.570;13.052;2023-02-01T07:47:56;2.27;;;1.27;;
23206;SDS011;11773;52.570;13.052;2023-02-01T07:50:25;1.80;;;1.10;;
23206;SDS011;11773;52.570;13.052;2023-02-01T07:52:55;2.17;;;0.97;;
23206;SDS011;11773;52.570;13.052;2023-02-01T07:55:27;3.27;;;1.50;;
23206;SDS011;11773;52.570;13.052;2023-02-01T07:58:17;1.10;;;0.83;;
23206;SDS011;11773;52.570;13.052;2023-02-01T08:00:47;1.80;;;1.00;;
23206;SDS011;11773;52.570;13.052;2023-02-01T08:03:34;2.10;;;1.20;;
23206;SDS011;11773;52.570;13.052;2023-02-01T08:06:04;1.67;;;1.00;;
23206;SDS011;11773;52.570;13.052;2023-02-01T08:08:35;2.87;;;1.00;;
23206;SDS011;11773;52.570;13.052;2023-02-01T08:11:05;2.27;;;1.27;;
23206;SDS011;11773;52.570;13.052;2023-02-01T08:13:35;1.80;;;1.30;;
23206;SDS011;11773;52.570;13.052;2023-02-01T08:16:06;1.33;;;0.97;;
23206;SDS011;11773;52.570;13.052;2023-02-01T08:18:38;1.43;;;0.73;;
23206;SDS011;11773;52.570;13.052;2023-02-01T08:21:12;1.60;;;1.03;;
23206;SDS011;11773;52.570;13.052;2023-02-01T08:23:45;2.37;;;0.80;;
23206;SDS011;11773;52.570;13.052;2023-02-01T08:26:16;1.63;;;0.80;;
23206;SDS011;11773;52.570;13.052;2023-02-01T08:28:52;3.03;;;1.57;;
23206;SDS011;11773;52.570;13.052;2023-02-01T08:31:28;2.47;;;1.20;;
23206;SDS011;11773;52.570;13.052;2023-02-01T08:34:00;1.00;;;0.87;;
23206;SDS011;11773;52.570;13.052;2023-02-01T08:36:31;3.23;;;1.27;;
23206;SDS011;11773;52.570;13.052;2023-02-01T08:39:01;1.80;;;1.10;;
23206;SDS011;11773;52.570;13.052;2023-02-01T08:41:32;2.77;;;1.30;;
23206;SDS011;11773;52.570;13.052;2023-02-01T08:44:02;1.07;;;0.73;;
23206;SDS011;11773;52.570;13.052;2023-02-01T08:46:31;2.63;;;1.10;;
23206;SDS011;11773;52.570;13.052;2023-02-01T08:49:01;1.07;;;0.83;;
23206;SDS011;11773;52.570;13.052;2023-02-01T08:51:30;0.77;;;0.73;;
23206;SDS011;11773;52.570;13.052;2023-02-01T08:54:00;1.43;;;0.80;;
23206;SDS011;11773;52.570;13.052;2023-02-01T08:56:29;1.37;;;0.73;;
23206;SDS011;11773;52.570;13.052;2023-02-01T08:58:59;1.23;;;0.70;;
23206;SDS011;11773;52.570;13.052;2023-02-01T09:01:28;0.73;;;0.60;;
23206;SDS011;11773;52.570;13.052;2023-02-01T09:03:58;1.13;;;0.70;;
23206;SDS011;11773;52.570;13.052;2023-02-01T09:06:27;0.73;;;0.60;;
23206;SDS011;11773;52.570;13.052;2023-02-01T09:08:57;0.87;;;0.70;;
23206;SDS011;11773;52.570;13.052;2023-02-01T09:11:26;1.07;;;0.70;;
23206;SDS011;11773;52.570;13.052;2023-02-01T09:13:56;1.00;;;0.50;;
23206;SDS011;11773;52.570;13.052;2023-02-01T09:16:25;0.80;;;0.53;;
23206;SDS011;11773;52.570;13.052;2023-02-01T09:18:55;1.03;;;0.60;;
23206;SDS011;11773;52.570;13.052;2023-02-01T09:21:26;1.15;;;0.70;;
23206;SDS011;11773;52.570;13.052;2023-02-01T09:23:57;1.03;;;0.50;;
23206;SDS011;11773;52.570;13.052;2023-02-01T09:26:27;0.40;;;0.40;;
23206;SDS011;11773;52.570;13.052;2023-02-01T09:28:59;0.67;;;0.67;;
23206;SDS011;11773;52.570;13.052;2023-02-01T09:31:30;1.07;;;0.70;;
23206;SDS011;11773;52.570;13.052;2023-02-01T09:34:00;0.60;;;0.40;;
23206;SDS011;11773;52.570;13.052;2023-02-01T09:36:29;0.50;;;0.50;;
23206;SDS011;11773;52.570;13.052;2023-02-01T09:39:00;0.40;;;0.40;;
23206;SDS011;11773;52.570;13.052;2023-02-01T09:41:42;1.00;;;0.50;;
23206;SDS011;11773;52.570;13.052;2023-02-01T09:44:58;0.60;;;0.60;;
23206;SDS011;11773;52.570;13.052;2023-02-01T09:47:39;1.80;;;0.87;;
23206;SDS011;11773;52.570;13.052;2023-02-01T09:50:17;0.77;;;0.60;;
23206;SDS011;11773;52.570;13.052;2023-02-01T09:53:05;0.83;;;0.50;;
23206;SDS011;11773;52.570;13.052;2023-02-01T09:55:36;0.73;;;0.40;;
23206;SDS011;11773;52.570;13.052;2023-02-01T10:00:57;0.37;;;0.37;;
23206;SDS011;11773;52.570;13.052;2023-02-01T10:03:31;0.60;;;0.60;;
23206;SDS011;11773;52.570;13.052;2023-02-01T10:06:16;1.03;;;0.80;;
23206;SDS011;11773;52.570;13.052;2023-02-01T10:17:25;1.67;;;0.60;;
23206;SDS011;11773;52.570;13.052;2023-02-01T10:20:23;0.87;;;0.60;;
23206;SDS011;11773;52.570;13.052;2023-02-01T10:22:59;0.60;;;0.60;;
23206;SDS011;11773;52.570;13.052;2023-02-01T10:25:51;1.63;;;0.70;;
23206;SDS011;11773;52.570;13.052;2023-02-01T10:28:23;0.40;;;0.37;;
23206;SDS011;11773;52.570;13.052;2023-02-01T10:30:54;1.50;;;0.90;;
23206;SDS011;11773;52.570;13.052;2023-02-01T10:33:30;0.90;;;0.77;;
23206;SDS011;11773;52.570;13.052;2023-02-01T10:36:16;1.73;;;1.17;;
23206;SDS011;11773;52.570;13.052;2023-02-01T10:38:57;1.77;;;1.40;;
23206;SDS011;11773;52.570;13.052;2023-02-01T10:41:31;1.62;;;1.27;;
23206;SDS011;11773;52.570;13.052;2023-02-01T10:44:09;1.87;;;1.17;;
23206;SDS011;11773;52.570;13.052;2023-02-01T10:46:47;0.97;;;0.83;;
23206;SDS011;11773;52.570;13.052;2023-02-01T10:49:18;0.90;;;0.90;;
23206;SDS011;11773;52.570;13.052;2023-02-01T10:52:12;1.43;;;1.10;;
23206;SDS011;11773;52.570;13.052;2023-02-01T10:54:46;3.00;;;1.23;;
23206;SDS011;11773;52.570;13.052;2023-02-01T10:57:23;1.90;;;1.20;;
23206;SDS011;11773;52.570;13.052;2023-02-01T10:59:55;1.47;;;0.80;;
23206;SDS011;11773;52.570;13.052;2023-02-01T11:02:32;1.20;;;1.00;;
23206;SDS011;11773;52.570;13.052;2023-02-01T11:05:09;1.13;;;1.00;;
23206;SDS011;11773;52.570;13.052;2023-02-01T11:07:39;2.00;;;1.30;;
23206;SDS011;11773;52.570;13.052;2023-02-01T11:10:34;3.30;;;1.63;;
23206;SDS011;11773;52.570;13.052;2023-02-01T11:13:11;2.47;;;1.40;;
23206;SDS011;11773;52.570;13.052;2023-02-01T11:15:45;3.87;;;1.90;;
23206;SDS011;11773;52.570;13.052;2023-02-01T11:18:18;3.93;;;1.70;;
23206;SDS011;11773;52.570;13.052;2023-02-01T11:20:54;1.33;;;1.00;;
23206;SDS011;11773;52.570;13.052;2023-02-01T11:23:25;2.37;;;1.30;;
23206;SDS011;11773;52.570;13.052;2023-02-01T11:26:00;2.40;;;1.40;;
23206;SDS011;11773;52.570;13.052;2023-02-01T11:28:40;0.93;;;0.80;;
23206;SDS011;11773;52.570;13.052;2023-02-01T11:31:13;1.43;;;0.90;;
23206;SDS011;11773;52.570;13.052;2023-02-01T11:33:46;2.10;;;1.00;;
23206;SDS011;11773;52.570;13.052;2023-02-01T11:36:18;1.90;;;1.30;;
23206;SDS011;11773;52.570;13.052;2023-02-01T11:39:41;1.83;;;1.60;;
23206;SDS011;11773;52.570;13.052;2023-02-01T11:41:56;2.03;;;1.23;;
23206;SDS011;11773;52.570;13.052;2023-02-01T11:44:44;1.53;;;1.00;;
23206;SDS011;11773;52.570;13.052;2023-02-01T11:47:31;3.07;;;1.60;;
23206;SDS011;11773;52.570;13.052;2023-02-01T11:50:12;1.60;;;1.10;;
23206;SDS011;11773;52.570;13.052;2023-02-01T11:52:50;0.77;;;0.70;;
23206;SDS011;11773;52.570;13.052;2023-02-01T12:01:30;1.70;;;1.00;;
23206;SDS011;11773;52.570;13.052;2023-02-01T12:07:23;1.47;;;0.77;;
23206;SDS011;11773;52.570;13.052;2023-02-01T12:13:04;1.63;;;0.70;;
23206;SDS011;11773;52.570;13.052;2023-02-01T12:16:15;1.93;;;1.07;;
23206;SDS011;11773;52.570;13.052;2023-02-01T12:21:47;2.47;;;1.13;;
23206;SDS011;11773;52.570;13.052;2023-02-01T12:27:04;2.03;;;1.03;;
23206;SDS011;11773;52.570;13.052;2023-02-01T12:30:11;2.07;;;1.10;;
23206;SDS011;11773;52.570;13.052;2023-02-01T12:32:57;2.20;;;1.00;;
23206;SDS011;11773;52.570;13.052;2023-02-01T12:41:57;2.03;;;1.20;;
23206;SDS011;11773;52.570;13.052;2023-02-01T12:44:35;3.30;;;1.10;;
23206;SDS011;11773;52.570;13.052;2023-02-01T12:47:20;1.07;;;0.80;;
23206;SDS011;11773;52.570;13.052;2023-02-01T12:50:00;1.63;;;0.70;;
23206;SDS011;11773;52.570;13.052;2023-02-01T12:52:42;2.50;;;0.87;;
23206;SDS011;11773;52.570;13.052;2023-02-01T12:55:20;2.33;;;1.10;;
23206;SDS011;11773;52.570;13.052;2023-02-01T12:58:42;2.40;;;1.20;;
23206;SDS011;11773;52.570;13.052;2023-02-01T13:00:44;2.90;;;0.80;;
23206;SDS011;11773;52.570;13.052;2023-02-01T13:03:48;2.07;;;0.73;;
23206;SDS011;11773;52.570;13.052;2023-02-01T13:06:31;2.03;;;1.10;;
23206;SDS011;11773;52.570;13.052;2023-02-01T13:09:05;1.57;;;1.10;;
23206;SDS011;11773;52.570;13.052;2023-02-01T13:11:44;1.77;;;1.00;;
23206;SDS011;11773;52.570;13.052;2023-02-01T13:17:14;1.97;;;0.97;;
23206;SDS011;11773;52.570;13.052;2023-02-01T13:19:56;1.20;;;0.90;;
23206;SDS011;11773;52.570;13.052;2023-02-01T13:22:34;1.70;;;0.90;;
23206;SDS011;11773;52.570;13.052;2023-02-01T13:25:13;0.90;;;0.67;;
23206;SDS011;11773;52.570;13.052;2023-02-01T13:27:56;1.50;;;0.80;;
23206;SDS011;11773;52.570;13.052;2023-02-01T13:43:05;1.27;;;0.77;;
23206;SDS011;11773;52.570;13.052;2023-02-01T13:45:35;1.63;;;1.20;;
23206;SDS011;11773;52.570;13.052;2023-02-01T13:48:18;2.30;;;1.13;;
23206;SDS011;11773;52.570;13.052;2023-02-01T13:50:53;1.60;;;0.67;;
23206;SDS011;11773;52.570;13.052;2023-02-01T13:53:35;2.60;;;0.83;;
23206;SDS011;11773;52.570;13.052;2023-02-01T13:56:14;2.40;;;1.13;;
23206;SDS011;11773;52.570;13.052;2023-02-01T13:58:50;1.67;;;1.00;;
23206;SDS011;11773;52.570;13.052;2023-02-01T14:03:57;1.63;;;1.10;;
23206;SDS011;11773;52.570;13.052;2023-02-01T14:11:49;1.20;;;0.50;;
23206;SDS011;11773;52.570;13.052;2023-02-01T14:14:37;3.30;;;1.17;;
23206;SDS011;11773;52.570;13.052;2023-02-01T14:19:33;1.90;;;1.00;;
23206;SDS011;11773;52.570;13.052;2023-02-01T14:25:01;1.20;;;0.77;;
23206;SDS011;11773;52.570;13.052;2023-02-01T14:27:34;1.53;;;0.83;;
23206;SDS011;11773;52.570;13.052;2023-02-01T14:30:07;1.57;;;1.17;;
23206;SDS011;11773;52.570;13.052;2023-02-01T14:32:42;1.40;;;0.83;;
23206;SDS011;11773;52.570;13.052;2023-02-01T14:35:26;2.47;;;1.23;;
23206;SDS011;11773;52.570;13.052;2023-02-01T14:37:59;0.93;;;0.80;;
23206;SDS011;11773;52.570;13.052;2023-02-01T14:40:30;1.23;;;1.00;;
23206;SDS011;11773;52.570;13.052;2023-02-01T14:43:02;1.47;;;0.90;;
23206;SDS011;11773;52.570;13.052;2023-02-01T14:50:41;2.77;;;1.30;;
23206;SDS011;11773;52.570;13.052;2023-02-01T14:53:18;2.33;;;1.40;;
23206;SDS011;11773;52.570;13.052;2023-02-01T14:56:04;2.13;;;1.40;;
23206;SDS011;11773;52.570;13.052;2023-02-01T14:58:42;1.27;;;0.83;;
23206;SDS011;11773;52.570;13.052;2023-02-01T15:01:31;2.80;;;0.90;;
23206;SDS011;11773;52.570;13.052;2023-02-01T15:04:11;1.70;;;0.70;;
23206;SDS011;11773;52.570;13.052;2023-02-01T15:06:49;0.63;;;0.47;;
23206;SDS011;11773;52.570;13.052;2023-02-01T15:09:25;0.97;;;0.60;;
23206;SDS011;11773;52.570;13.052;2023-02-01T15:12:03;0.70;;;0.53;;
23206;SDS011;11773;52.570;13.052;2023-02-01T15:14:47;0.63;;;0.47;;
23206;SDS011;11773;52.570;13.052;2023-02-01T15:17:27;0.93;;;0.73;;
23206;SDS011;11773;52.570;13.052;2023-02-01T15:19:57;0.67;;;0.67;;
23206;SDS011;11773;52.570;13.052;2023-02-01T15:22:31;1.70;;;0.60;;
23206;SDS011;11773;52.570;13.052;2023-02-01T15:25:02;1.20;;;0.70;;
23206;SDS011;11773;52.570;13.052;2023-02-01T15:27:33;1.00;;;0.60;;
23206;SDS011;11773;52.570;13.052;2023-02-01T15:30:12;1.17;;;0.60;;
23206;SDS011;11773;52.570;13.052;2023-02-01T15:32:49;0.93;;;0.77;;
23206;SDS011;11773;52.570;13.052;2023-02-01T15:35:38;0.93;;;0.67;;
23206;SDS011;11773;52.570;13.052;2023-02-01T15:46:42;1.63;;;1.33;;
23206;SDS011;11773;52.570;13.052;2023-02-01T15:49:23;1.10;;;1.00;;
23206;SDS011;11773;52.570;13.052;2023-02-01T15:52:00;0.90;;;0.90;;
23206;SDS011;11773;52.570;13.052;2023-02-01T15:54:43;0.77;;;0.70;;
23206;SDS011;11773;52.570;13.052;2023-02-01T15:57:20;0.70;;;0.60;;
23206;SDS011;11773;52.570;13.052;2023-02-01T16:00:05;0.70;;;0.63;;
23206;SDS011;11773;52.570;13.052;2023-02-01T16:03:00;0.63;;;0.60;;
23206;SDS011;11773;52.570;13.052;2023-02-01T16:05:36;0.50;;;0.50;;
23206;SDS011;11773;52.570;13.052;2023-02-01T16:08:11;0.67;;;0.67;;
23206;SDS011;11773;52.570;13.052;2023-02-01T16:11:40;0.67;;;0.60;;
23206;SDS011;11773;52.570;13.052;2023-02-01T16:13:38;0.40;;;0.40;;
23206;SDS011;11773;52.570;13.052;2023-02-01T16:16:08;0.57;;;0.50;;
23206;SDS011;11773;52.570;13.052;2023-02-01T16:18:40;0.50;;;0.50;;
23206;SDS011;11773;52.570;13.052;2023-02-01T16:21:11;0.40;;;0.40;;
23206;SDS011;11773;52.570;13.052;2023-02-01T16:23:41;0.53;;;0.53;;
23206;SDS011;11773;52.570;13.052;2023-02-01T16:26:12;0.40;;;0.40;;
23206;SDS011;11773;52.570;13.052;2023-02-01T16:28:41;0.50;;;0.50;;
23206;SDS011;11773;52.570;13.052;2023-02-01T16:31:12;0.30;;;0.30;;
23206;SDS011;11773;52.570;13.052;2023-02-01T16:33:48;0.50;;;0.50;;
23206;SDS011;11773;52.570;13.052;2023-02-01T16:36:19;0.60;;;0.60;;
23206;SDS011;11773;52.570;13.052;2023-02-01T16:38:49;0.50;;;0.50;;
23206;SDS011;11773;52.570;13.052;2023-02-01T16:41:21;0.40;;;0.40;;
23206;SDS011;11773;52.570;13.052;2023-02-01T16:43:54;0.40;;;0.40;;
23206;SDS011;11773;52.570;13.052;2023-02-01T16:46:24;0.60;;;0.60;;
23206;SDS011;11773;52.570;13.052;2023-02-01T16:48:58;0.43;;;0.43;;
23206;SDS011;11773;52.570;13.052;2023-02-01T16:51:29;0.30;;;0.30;;